createdAt,value
2023-01-18T04:39:47.608Z,7.30
2023-01-18T04:50:23.487Z,6.30
2023-01-18T05:01:03.799Z,7.47
2023-01-18T05:11:39.420Z,5.95
2023-01-18T05:22:15.307Z,7.88
2023-01-18T05:32:51.092Z,7.72
2023-01-18T05:43:28.363Z,10.05
2023-01-18T05:54:03.976Z,14.80
2023-01-18T06:04:39.520Z,9.80
2023-01-18T06:15:15.578Z,10.48
2023-01-18T06:25:51.279Z,9.63
2023-01-18T06:36:29.281Z,9.98
2023-01-18T06:47:05.358Z,15.30
2023-01-18T06:57:41.444Z,12.00
2023-01-18T07:08:17.584Z,20.40
2023-01-18T07:18:53.448Z,10.65
2023-01-18T07:29:29.153Z,8.82
2023-01-18T07:40:05.322Z,15.05
2023-01-18T07:50:41.325Z,12.07
2023-01-18T08:01:20.109Z,11.63
2023-01-18T08:11:56.067Z,13.05
2023-01-18T08:22:32.490Z,13.60
2023-01-18T08:33:08.346Z,8.80
2023-01-18T08:43:45.179Z,8.48
2023-01-18T08:54:20.515Z,6.28
2023-01-18T09:04:56.491Z,6.70
2023-01-18T09:15:32.635Z,4.82
2023-01-18T09:26:16.796Z,14.10
2023-01-18T09:36:52.771Z,17.10
2023-01-18T09:47:36.682Z,11.52
2023-01-18T09:58:53.424Z,7.43
2023-01-18T10:09:34.377Z,14.07
2023-01-18T10:20:40.913Z,7.25
2023-01-18T10:31:44.546Z,5.60
2023-01-18T10:42:47.858Z,7.15
2023-01-18T10:53:23.280Z,8.45
2023-01-18T11:04:07.461Z,5.32
2023-01-18T11:14:43.088Z,7.43
2023-01-18T11:25:19.115Z,5.70
2023-01-18T11:35:59.040Z,7.60
2023-01-18T11:46:42.550Z,4.00
2023-01-18T11:57:18.340Z,4.38
2023-01-18T12:08:18.983Z,5.13
2023-01-18T12:19:22.440Z,8.45
2023-01-18T12:30:37.065Z,7.60
2023-01-18T12:41:44.077Z,4.53
2023-01-18T12:52:22.284Z,3.78
2023-01-18T13:02:58.053Z,5.60
2023-01-18T13:13:35.717Z,12.38
2023-01-18T13:24:31.135Z,9.73
2023-01-18T13:35:33.145Z,12.68
2023-01-18T13:46:09.683Z,15.30
2023-01-18T13:57:09.502Z,20.95
2023-01-18T14:07:52.242Z,9.65
2023-01-18T14:18:30.160Z,12.95
2023-01-18T14:29:07.859Z,8.63
2023-01-18T14:39:43.468Z,19.05
2023-01-18T14:50:21.155Z,22.27
2023-01-18T15:00:57.195Z,14.23
2023-01-18T15:11:36.237Z,12.77
2023-01-18T15:22:14.642Z,16.40
2023-01-18T15:32:55.691Z,14.93
2023-01-18T15:43:34.988Z,12.43
2023-01-18T15:54:19.783Z,15.95
2023-01-18T16:05:10.156Z,14.82
2023-01-18T16:15:47.207Z,13.05
2023-01-18T16:26:29.144Z,16.40
2023-01-18T16:37:05.196Z,20.67
2023-01-18T16:47:40.703Z,20.27
2023-01-18T16:58:18.622Z,30.80
2023-01-18T17:08:54.237Z,33.50
2023-01-18T17:19:29.617Z,24.73
2023-01-18T17:30:06.647Z,22.00
2023-01-18T17:40:44.346Z,28.67
2023-01-18T17:51:20.915Z,22.50
2023-01-18T18:01:56.313Z,22.45
2023-01-18T18:12:33.782Z,27.77
2023-01-18T18:23:10.624Z,29.42
2023-01-18T18:33:46.437Z,26.42
2023-01-18T18:44:22.985Z,29.58
2023-01-18T18:54:58.808Z,27.30
2023-01-18T19:05:35.776Z,29.65
2023-01-18T19:16:11.914Z,43.60
2023-01-18T19:26:47.482Z,35.75
2023-01-18T19:37:22.982Z,33.28
2023-01-18T19:48:00.441Z,27.90
2023-01-18T19:58:37.829Z,40.70
2023-01-18T20:09:22.049Z,37.77
2023-01-18T20:19:58.833Z,33.95
2023-01-18T20:30:34.717Z,32.42
2023-01-18T20:41:10.796Z,24.15
2023-01-18T20:51:46.508Z,26.00
2023-01-18T21:02:22.589Z,26.83
2023-01-18T21:12:58.706Z,27.52
2023-01-18T21:23:39.203Z,16.50
2023-01-18T21:34:14.992Z,25.95
2023-01-18T21:45:08.854Z,25.85
2023-01-18T21:55:44.262Z,22.75
2023-01-18T22:06:20.144Z,21.23
2023-01-18T22:16:55.918Z,16.60
2023-01-18T22:27:32.117Z,17.90
